EWG6PR EDDS-LOWW
Flight info
| Callsign | EWG6PR |
|---|---|
| Flight time | 0h 59m |
| Altitude | 31000 |
| Route | ABTAL4B ABTAL L173 RIXED Y161 RIDAR Z98 MIQ L605 BIBAG Q104 AKIMA DCT MASUR MASUR3W |
| Aircraft | A319/M-SDE3FGHIRWY/LB1 |
Departure
| Time | 2026-04-20 22:41 |
|---|---|
| Airport | Stuttgart Airport (EDDS) |
Arrival
| Time | 2026-04-20 23:40 |
|---|---|
| Airport | Vienna International Airport (LOWW) |
| Time | Latitude | Longitude | Altitude | Speed | Heading |
|---|---|---|---|---|---|
| 2026-04-20 22:27 | 48.68995 | 9.19896 | 1307 ft | 0 kts | 344° |
| 2026-04-20 22:30 | 48.68993 | 9.19897 | 1307 ft | 2 kts | 344° |
| 2026-04-20 22:30 | 48.68971 | 9.19909 | 1306 ft | 3 kts | 340° |
| 2026-04-20 22:30 | 48.68946 | 9.19917 | 1304 ft | 4 kts | 13° |
| 2026-04-20 22:30 | 48.68926 | 9.19899 | 1304 ft | 2 kts | 57° |
| 2026-04-20 22:31 | 48.68923 | 9.19891 | 1304 ft | 1 kts | 58° |
| 2026-04-20 22:35 | 48.68923 | 9.19892 | 1304 ft | 1 kts | 58° |
| 2026-04-20 22:35 | 48.68933 | 9.19915 | 1303 ft | 5 kts | 58° |
| 2026-04-20 22:35 | 48.68959 | 9.19980 | 1303 ft | 9 kts | 58° |
| 2026-04-20 22:35 | 48.68995 | 9.20078 | 1302 ft | 12 kts | 69° |
| 2026-04-20 22:36 | 48.69022 | 9.20219 | 1297 ft | 16 kts | 74° |
| 2026-04-20 22:36 | 48.69054 | 9.20383 | 1291 ft | 14 kts | 72° |
| 2026-04-20 22:36 | 48.69020 | 9.20536 | 1285 ft | 17 kts | 136° |
| 2026-04-20 22:36 | 48.68963 | 9.20649 | 1279 ft | 16 kts | 101° |
| 2026-04-20 22:37 | 48.68992 | 9.20837 | 1277 ft | 21 kts | 73° |
| 2026-04-20 22:37 | 48.69026 | 9.21024 | 1270 ft | 18 kts | 76° |
| 2026-04-20 22:37 | 48.69067 | 9.21231 | 1269 ft | 23 kts | 73° |
| 2026-04-20 22:37 | 48.69044 | 9.21446 | 1259 ft | 21 kts | 123° |
| 2026-04-20 22:38 | 48.69062 | 9.21657 | 1261 ft | 22 kts | 75° |
| 2026-04-20 22:38 | 48.69106 | 9.21904 | 1257 ft | 27 kts | 73° |
| 2026-04-20 22:38 | 48.69166 | 9.22200 | 1246 ft | 32 kts | 73° |
| 2026-04-20 22:38 | 48.69221 | 9.22498 | 1233 ft | 23 kts | 74° |
| 2026-04-20 22:39 | 48.69270 | 9.22754 | 1228 ft | 28 kts | 74° |
| 2026-04-20 22:39 | 48.69320 | 9.23020 | 1222 ft | 17 kts | 73° |
| 2026-04-20 22:39 | 48.69335 | 9.23156 | 1220 ft | 6 kts | 127° |
| 2026-04-20 22:39 | 48.69277 | 9.23196 | 1215 ft | 14 kts | 160° |
| 2026-04-20 22:40 | 48.69196 | 9.23213 | 1213 ft | 10 kts | 201° |
| 2026-04-20 22:40 | 48.69161 | 9.23120 | 1215 ft | 10 kts | 254° |
| 2026-04-20 22:40 | 48.69156 | 9.23093 | 1215 ft | 0 kts | 254° |
| 2026-04-20 22:40 | 48.69121 | 9.22898 | 1219 ft | 49 kts | 255° |
| 2026-04-20 22:41 | 48.68969 | 9.22102 | 1242 ft | 108 kts | 254° |
| 2026-04-20 22:41 | 48.68717 | 9.20746 | 1275 ft | 159 kts | 255° |
| 2026-04-20 22:41 | 48.68375 | 9.19227 | 2095 ft | 135 kts | 248° |
| 2026-04-20 22:41 | 48.67962 | 9.18042 | 2634 ft | 133 kts | 241° |
| 2026-04-20 22:42 | 48.67529 | 9.16585 | 2743 ft | 154 kts | 253° |
| 2026-04-20 22:42 | 48.67203 | 9.14979 | 3077 ft | 167 kts | 256° |
| 2026-04-20 22:42 | 48.66870 | 9.13247 | 3474 ft | 175 kts | 255° |
| 2026-04-20 22:42 | 48.66455 | 9.11511 | 4135 ft | 168 kts | 238° |
| 2026-04-20 22:43 | 48.65571 | 9.10791 | 4934 ft | 143 kts | 174° |
| 2026-04-20 22:43 | 48.64542 | 9.11253 | 5003 ft | 172 kts | 149° |
| 2026-04-20 22:43 | 48.63509 | 9.12361 | 5308 ft | 192 kts | 139° |
| 2026-04-20 22:43 | 48.62471 | 9.13727 | 5810 ft | 203 kts | 134° |
| 2026-04-20 22:44 | 48.61710 | 9.15568 | 6328 ft | 217 kts | 103° |
| 2026-04-20 22:44 | 48.61528 | 9.17983 | 6723 ft | 241 kts | 89° |
| 2026-04-20 22:44 | 48.61589 | 9.20596 | 7169 ft | 264 kts | 85° |
| 2026-04-20 22:44 | 48.61709 | 9.23471 | 7780 ft | 281 kts | 85° |
| 2026-04-20 22:45 | 48.62030 | 9.26422 | 8604 ft | 288 kts | 71° |
| 2026-04-20 22:45 | 48.62783 | 9.29265 | 9470 ft | 294 kts | 64° |
| 2026-04-20 22:45 | 48.63610 | 9.32131 | 10304 ft | 301 kts | 64° |
| 2026-04-20 22:45 | 48.64471 | 9.35144 | 10665 ft | 324 kts | 64° |
| 2026-04-20 22:46 | 48.65383 | 9.38356 | 11147 ft | 338 kts | 64° |
| 2026-04-20 22:46 | 48.66315 | 9.41657 | 11886 ft | 344 kts | 64° |
| 2026-04-20 22:46 | 48.67258 | 9.45011 | 12664 ft | 349 kts | 64° |
| 2026-04-20 22:46 | 48.68210 | 9.48411 | 13439 ft | 353 kts | 64° |
| 2026-04-20 22:47 | 48.69174 | 9.51855 | 14203 ft | 357 kts | 64° |
| 2026-04-20 22:47 | 48.70151 | 9.55343 | 14905 ft | 361 kts | 64° |
| 2026-04-20 22:47 | 48.71134 | 9.58859 | 15592 ft | 364 kts | 64° |
| 2026-04-20 22:47 | 48.72114 | 9.62364 | 16276 ft | 368 kts | 64° |
| 2026-04-20 22:48 | 48.73114 | 9.65951 | 16977 ft | 371 kts | 64° |
| 2026-04-20 22:48 | 48.74120 | 9.69575 | 17672 ft | 375 kts | 64° |
| 2026-04-20 22:48 | 48.75135 | 9.73238 | 18369 ft | 379 kts | 64° |
| 2026-04-20 22:48 | 48.76162 | 9.76936 | 18963 ft | 383 kts | 64° |
| 2026-04-20 22:49 | 48.77203 | 9.80677 | 19540 ft | 387 kts | 63° |
| 2026-04-20 22:49 | 48.78259 | 9.84470 | 20109 ft | 392 kts | 63° |
| 2026-04-20 22:49 | 48.79323 | 9.88303 | 20678 ft | 397 kts | 63° |
| 2026-04-20 22:49 | 48.80395 | 9.92183 | 21241 ft | 401 kts | 63° |
| 2026-04-20 22:50 | 48.81477 | 9.96110 | 21781 ft | 406 kts | 63° |
| 2026-04-20 22:50 | 48.82565 | 10.00075 | 22319 ft | 410 kts | 63° |
| 2026-04-20 22:50 | 48.83666 | 10.04095 | 22865 ft | 415 kts | 63° |
| 2026-04-20 22:50 | 48.84569 | 10.08301 | 23375 ft | 424 kts | 73° |
| 2026-04-20 22:51 | 48.85001 | 10.12775 | 23904 ft | 432 kts | 84° |
| 2026-04-20 22:51 | 48.84930 | 10.17351 | 24420 ft | 436 kts | 94° |
| 2026-04-20 22:51 | 48.84562 | 10.21953 | 24871 ft | 440 kts | 95° |
| 2026-04-20 22:51 | 48.84190 | 10.26525 | 25277 ft | 444 kts | 95° |
| 2026-04-20 22:52 | 48.83809 | 10.31202 | 25677 ft | 449 kts | 95° |
| 2026-04-20 22:52 | 48.83261 | 10.35890 | 26063 ft | 455 kts | 103° |
| 2026-04-20 22:52 | 48.82225 | 10.40447 | 26450 ft | 460 kts | 114° |
| 2026-04-20 22:52 | 48.80709 | 10.44731 | 26830 ft | 463 kts | 124° |
| 2026-04-20 22:53 | 48.78747 | 10.48608 | 27204 ft | 464 kts | 135° |
| 2026-04-20 22:53 | 48.76509 | 10.52177 | 27584 ft | 468 kts | 136° |
| 2026-04-20 22:53 | 48.74260 | 10.55750 | 27979 ft | 471 kts | 136° |
| 2026-04-20 22:53 | 48.71986 | 10.59371 | 28362 ft | 475 kts | 136° |
| 2026-04-20 22:54 | 48.69700 | 10.63014 | 28740 ft | 479 kts | 136° |
| 2026-04-20 22:54 | 48.67393 | 10.66682 | 29102 ft | 483 kts | 136° |
| 2026-04-20 22:54 | 48.65067 | 10.70378 | 29459 ft | 487 kts | 137° |
| 2026-04-20 22:54 | 48.62844 | 10.74296 | 29814 ft | 494 kts | 128° |
| 2026-04-20 22:55 | 48.61012 | 10.78734 | 30151 ft | 500 kts | 118° |
| 2026-04-20 22:55 | 48.59670 | 10.83508 | 30436 ft | 504 kts | 108° |
| 2026-04-20 22:55 | 48.58815 | 10.88640 | 30743 ft | 505 kts | 97° |
| 2026-04-20 22:55 | 48.58480 | 10.93919 | 31052 ft | 504 kts | 89° |
| 2026-04-20 22:56 | 48.58194 | 11.04342 | 31135 ft | 484 kts | 90° |
| 2026-04-20 22:56 | 48.58048 | 11.09346 | 31148 ft | 472 kts | 90° |
| 2026-04-20 22:56 | 48.57905 | 11.14267 | 31136 ft | 467 kts | 89° |
| 2026-04-20 22:57 | 48.57689 | 11.24054 | 31133 ft | 465 kts | 88° |
| 2026-04-20 22:57 | 48.57538 | 11.33805 | 31162 ft | 464 kts | 89° |
| 2026-04-20 22:58 | 48.57375 | 11.43457 | 31135 ft | 462 kts | 89° |
| 2026-04-20 22:58 | 48.57174 | 11.53148 | 31132 ft | 461 kts | 89° |
| 2026-04-20 22:59 | 48.56584 | 11.62800 | 31127 ft | 464 kts | 101° |
| 2026-04-20 22:59 | 48.55185 | 11.72305 | 31119 ft | 464 kts | 101° |
| 2026-04-20 23:00 | 48.53799 | 11.81815 | 31108 ft | 464 kts | 101° |
| 2026-04-20 23:00 | 48.52405 | 11.91344 | 31093 ft | 465 kts | 101° |
| 2026-04-20 23:01 | 48.50996 | 12.00873 | 31104 ft | 465 kts | 102° |
| 2026-04-20 23:01 | 48.49578 | 12.10380 | 31101 ft | 465 kts | 102° |
| 2026-04-20 23:02 | 48.48155 | 12.19842 | 31098 ft | 465 kts | 102° |
| 2026-04-20 23:02 | 48.46716 | 12.29355 | 31092 ft | 466 kts | 102° |
| 2026-04-20 23:03 | 48.45273 | 12.38866 | 31086 ft | 466 kts | 102° |
| 2026-04-20 23:03 | 48.43816 | 12.48386 | 31087 ft | 466 kts | 102° |
| 2026-04-20 23:04 | 48.42353 | 12.57895 | 31086 ft | 466 kts | 102° |
| 2026-04-20 23:04 | 48.40883 | 12.67402 | 31086 ft | 466 kts | 102° |
| 2026-04-20 23:05 | 48.39824 | 12.76933 | 31087 ft | 463 kts | 89° |
| 2026-04-20 23:05 | 48.40057 | 12.86570 | 31084 ft | 461 kts | 84° |
| 2026-04-20 23:06 | 48.40353 | 12.96202 | 31085 ft | 461 kts | 84° |
| 2026-04-20 23:06 | 48.40634 | 13.05833 | 31122 ft | 460 kts | 84° |
| 2026-04-20 23:07 | 48.40898 | 13.15409 | 31128 ft | 456 kts | 84° |
| 2026-04-20 23:07 | 48.41155 | 13.24931 | 31116 ft | 454 kts | 84° |
| 2026-04-20 23:08 | 48.41378 | 13.32811 | 31115 ft | 452 kts | 84° |
| 2026-04-20 23:08 | 48.41866 | 13.42227 | 31105 ft | 450 kts | 81° |
| 2026-04-20 23:09 | 48.42491 | 13.51598 | 31093 ft | 450 kts | 81° |
| 2026-04-20 23:09 | 48.43078 | 13.60981 | 31078 ft | 450 kts | 81° |
| 2026-04-20 23:10 | 48.43611 | 13.70393 | 31075 ft | 451 kts | 82° |
| 2026-04-20 23:10 | 48.44122 | 13.79802 | 31067 ft | 451 kts | 82° |
| 2026-04-20 23:11 | 48.44629 | 13.89212 | 31069 ft | 451 kts | 82° |
| 2026-04-20 23:11 | 48.45137 | 13.98557 | 31098 ft | 449 kts | 82° |
| 2026-04-20 23:12 | 48.45631 | 14.07838 | 31095 ft | 442 kts | 82° |
| 2026-04-20 23:12 | 48.45875 | 14.12449 | 30868 ft | 442 kts | 82° |
| 2026-04-20 23:12 | 48.46120 | 14.17065 | 30366 ft | 441 kts | 82° |
| 2026-04-20 23:13 | 48.46362 | 14.21665 | 29880 ft | 439 kts | 82° |
| 2026-04-20 23:13 | 48.46597 | 14.26242 | 29448 ft | 435 kts | 82° |
| 2026-04-20 23:13 | 48.46825 | 14.30762 | 29014 ft | 431 kts | 82° |
| 2026-04-20 23:13 | 48.47050 | 14.35239 | 28603 ft | 426 kts | 82° |
| 2026-04-20 23:14 | 48.47271 | 14.39674 | 28214 ft | 423 kts | 82° |
| 2026-04-20 23:14 | 48.47489 | 14.44065 | 27781 ft | 420 kts | 82° |
| 2026-04-20 23:14 | 48.47706 | 14.48445 | 27362 ft | 417 kts | 82° |
| 2026-04-20 23:14 | 48.47920 | 14.52774 | 26950 ft | 414 kts | 82° |
| 2026-04-20 23:15 | 48.48133 | 14.57099 | 26527 ft | 412 kts | 82° |
| 2026-04-20 23:15 | 48.48344 | 14.61393 | 26107 ft | 410 kts | 82° |
| 2026-04-20 23:15 | 48.48552 | 14.65667 | 25671 ft | 408 kts | 82° |
| 2026-04-20 23:15 | 48.48755 | 14.69925 | 25233 ft | 406 kts | 82° |
| 2026-04-20 23:16 | 48.48954 | 14.74165 | 24791 ft | 405 kts | 82° |
| 2026-04-20 23:16 | 48.49147 | 14.78337 | 24345 ft | 404 kts | 82° |
| 2026-04-20 23:16 | 48.49339 | 14.82561 | 23900 ft | 402 kts | 82° |
| 2026-04-20 23:16 | 48.49529 | 14.86769 | 23426 ft | 401 kts | 82° |
| 2026-04-20 23:17 | 48.49721 | 14.90954 | 22928 ft | 398 kts | 82° |
| 2026-04-20 23:17 | 48.49911 | 14.95091 | 22481 ft | 395 kts | 82° |
| 2026-04-20 23:17 | 48.50098 | 14.99198 | 22034 ft | 391 kts | 83° |
| 2026-04-20 23:17 | 48.50282 | 15.03275 | 21587 ft | 387 kts | 83° |
| 2026-04-20 23:18 | 48.50460 | 15.07299 | 21146 ft | 384 kts | 83° |
| 2026-04-20 23:18 | 48.50633 | 15.11305 | 20701 ft | 381 kts | 83° |
| 2026-04-20 23:18 | 48.50804 | 15.15283 | 20264 ft | 378 kts | 83° |
| 2026-04-20 23:18 | 48.50972 | 15.19168 | 19835 ft | 375 kts | 83° |
| 2026-04-20 23:19 | 48.51138 | 15.23077 | 19415 ft | 372 kts | 83° |
| 2026-04-20 23:19 | 48.51302 | 15.26955 | 18970 ft | 369 kts | 83° |
| 2026-04-20 23:19 | 48.51463 | 15.30797 | 18555 ft | 366 kts | 84° |
| 2026-04-20 23:19 | 48.51623 | 15.34637 | 18080 ft | 364 kts | 84° |
| 2026-04-20 23:20 | 48.51777 | 15.38418 | 17652 ft | 360 kts | 84° |
| 2026-04-20 23:20 | 48.51930 | 15.42171 | 17232 ft | 356 kts | 84° |
| 2026-04-20 23:20 | 48.51901 | 15.45886 | 16857 ft | 353 kts | 93° |
| 2026-04-20 23:20 | 48.51694 | 15.49538 | 16566 ft | 346 kts | 92° |
| 2026-04-20 23:21 | 48.51490 | 15.53131 | 16261 ft | 341 kts | 92° |
| 2026-04-20 23:21 | 48.51290 | 15.56676 | 15959 ft | 338 kts | 92° |
| 2026-04-20 23:21 | 48.51091 | 15.60198 | 15655 ft | 336 kts | 92° |
| 2026-04-20 23:21 | 48.50894 | 15.63703 | 15357 ft | 335 kts | 92° |
| 2026-04-20 23:22 | 48.50697 | 15.67200 | 15062 ft | 333 kts | 92° |
| 2026-04-20 23:22 | 48.50504 | 15.70627 | 14764 ft | 332 kts | 92° |
| 2026-04-20 23:22 | 48.50306 | 15.74084 | 14463 ft | 330 kts | 92° |
| 2026-04-20 23:22 | 48.50105 | 15.77529 | 14171 ft | 328 kts | 93° |
| 2026-04-20 23:23 | 48.49902 | 15.80943 | 13872 ft | 327 kts | 93° |
| 2026-04-20 23:23 | 48.49698 | 15.84344 | 13550 ft | 325 kts | 93° |
| 2026-04-20 23:23 | 48.49495 | 15.87731 | 13254 ft | 324 kts | 93° |
| 2026-04-20 23:23 | 48.49292 | 15.91103 | 12970 ft | 322 kts | 93° |
| 2026-04-20 23:24 | 48.49093 | 15.94460 | 12676 ft | 321 kts | 93° |
| 2026-04-20 23:24 | 48.48893 | 15.97803 | 12388 ft | 320 kts | 94° |
| 2026-04-20 23:24 | 48.48688 | 16.01168 | 12095 ft | 318 kts | 94° |
| 2026-04-20 23:24 | 48.48480 | 16.04444 | 11814 ft | 317 kts | 96° |
| 2026-04-20 23:25 | 48.47926 | 16.07649 | 11534 ft | 316 kts | 113° |
| 2026-04-20 23:25 | 48.46839 | 16.10506 | 11251 ft | 313 kts | 129° |
| 2026-04-20 23:25 | 48.45311 | 16.12806 | 10973 ft | 309 kts | 146° |
| 2026-04-20 23:25 | 48.43541 | 16.14626 | 10696 ft | 307 kts | 149° |
| 2026-04-20 23:26 | 48.41773 | 16.16419 | 10417 ft | 306 kts | 148° |
| 2026-04-20 23:26 | 48.40014 | 16.18214 | 10144 ft | 305 kts | 148° |
| 2026-04-20 23:26 | 48.38262 | 16.20006 | 9862 ft | 303 kts | 148° |
| 2026-04-20 23:26 | 48.36523 | 16.21787 | 9574 ft | 302 kts | 148° |
| 2026-04-20 23:27 | 48.34810 | 16.23537 | 9308 ft | 302 kts | 148° |
| 2026-04-20 23:27 | 48.33076 | 16.25305 | 8976 ft | 300 kts | 148° |
| 2026-04-20 23:27 | 48.31354 | 16.27058 | 8698 ft | 298 kts | 148° |
| 2026-04-20 23:27 | 48.29641 | 16.28799 | 8429 ft | 296 kts | 148° |
| 2026-04-20 23:28 | 48.27939 | 16.30528 | 8171 ft | 295 kts | 148° |
| 2026-04-20 23:28 | 48.26245 | 16.32246 | 7899 ft | 293 kts | 148° |
| 2026-04-20 23:28 | 48.24559 | 16.33953 | 7638 ft | 292 kts | 148° |
| 2026-04-20 23:28 | 48.22882 | 16.35649 | 7372 ft | 290 kts | 148° |
| 2026-04-20 23:29 | 48.21216 | 16.37338 | 7116 ft | 288 kts | 148° |
| 2026-04-20 23:29 | 48.19558 | 16.39017 | 6859 ft | 287 kts | 148° |
| 2026-04-20 23:29 | 48.17907 | 16.40684 | 6595 ft | 285 kts | 148° |
| 2026-04-20 23:29 | 48.16261 | 16.42343 | 6322 ft | 284 kts | 148° |
| 2026-04-20 23:30 | 48.14646 | 16.43972 | 6083 ft | 283 kts | 147° |
| 2026-04-20 23:30 | 48.12998 | 16.45632 | 5821 ft | 281 kts | 147° |
| 2026-04-20 23:30 | 48.11395 | 16.47245 | 5567 ft | 280 kts | 147° |
| 2026-04-20 23:30 | 48.09784 | 16.48866 | 5318 ft | 277 kts | 147° |
| 2026-04-20 23:31 | 48.08191 | 16.50468 | 5076 ft | 276 kts | 147° |
| 2026-04-20 23:31 | 48.06605 | 16.52065 | 4823 ft | 274 kts | 146° |
| 2026-04-20 23:31 | 48.05029 | 16.53650 | 4573 ft | 271 kts | 146° |
| 2026-04-20 23:31 | 48.03460 | 16.55226 | 4329 ft | 273 kts | 146° |
| 2026-04-20 23:32 | 48.01909 | 16.56776 | 4179 ft | 262 kts | 147° |
| 2026-04-20 23:32 | 48.00410 | 16.58273 | 4031 ft | 255 kts | 147° |
| 2026-04-20 23:32 | 47.98958 | 16.59722 | 3905 ft | 246 kts | 147° |
| 2026-04-20 23:32 | 47.97558 | 16.61124 | 3801 ft | 238 kts | 147° |
| 2026-04-20 23:33 | 47.96203 | 16.62484 | 3772 ft | 230 kts | 146° |
| 2026-04-20 23:33 | 47.94888 | 16.63782 | 3627 ft | 227 kts | 149° |
| 2026-04-20 23:33 | 47.93396 | 16.64267 | 3451 ft | 222 kts | 194° |
| 2026-04-20 23:33 | 47.92014 | 16.63326 | 3412 ft | 218 kts | 221° |
| 2026-04-20 23:34 | 47.91069 | 16.61643 | 3357 ft | 210 kts | 249° |
| 2026-04-20 23:34 | 47.90781 | 16.59562 | 3308 ft | 204 kts | 277° |
| 2026-04-20 23:34 | 47.91163 | 16.57567 | 3261 ft | 199 kts | 303° |
| 2026-04-20 23:34 | 47.92048 | 16.56091 | 3215 ft | 188 kts | 327° |
| 2026-04-20 23:35 | 47.93196 | 16.55351 | 3202 ft | 172 kts | 348° |
| 2026-04-20 23:35 | 47.95282 | 16.55854 | 3100 ft | 145 kts | 27° |
| 2026-04-20 23:35 | 47.96062 | 16.56780 | 3061 ft | 144 kts | 44° |
| 2026-04-20 23:36 | 47.96603 | 16.58052 | 3034 ft | 148 kts | 62° |
| 2026-04-20 23:36 | 47.96833 | 16.59560 | 3012 ft | 151 kts | 82° |
| 2026-04-20 23:36 | 47.96964 | 16.61093 | 2862 ft | 145 kts | 65° |
| 2026-04-20 23:36 | 47.97505 | 16.62323 | 2796 ft | 140 kts | 38° |
| 2026-04-20 23:37 | 47.98322 | 16.63041 | 2705 ft | 133 kts | 14° |
| 2026-04-20 23:37 | 47.99224 | 16.63162 | 2562 ft | 131 kts | 352° |
| 2026-04-20 23:37 | 48.00109 | 16.62827 | 2439 ft | 131 kts | 344° |
| 2026-04-20 23:37 | 48.00986 | 16.62457 | 2285 ft | 131 kts | 344° |
| 2026-04-20 23:38 | 48.01862 | 16.62087 | 2119 ft | 129 kts | 344° |
| 2026-04-20 23:38 | 48.02713 | 16.61728 | 1943 ft | 126 kts | 344° |
| 2026-04-20 23:38 | 48.03548 | 16.61372 | 1762 ft | 123 kts | 344° |
| 2026-04-20 23:38 | 48.04370 | 16.61021 | 1650 ft | 122 kts | 345° |
| 2026-04-20 23:39 | 48.05193 | 16.60685 | 1475 ft | 123 kts | 345° |
| 2026-04-20 23:39 | 48.06008 | 16.60310 | 1301 ft | 122 kts | 344° |
| 2026-04-20 23:39 | 48.06823 | 16.59994 | 1144 ft | 123 kts | 345° |
| 2026-04-20 23:39 | 48.07651 | 16.59639 | 1019 ft | 126 kts | 344° |
| 2026-04-20 23:40 | 48.08484 | 16.59294 | 807 ft | 123 kts | 346° |
| 2026-04-20 23:40 | 48.09306 | 16.58937 | 631 ft | 122 kts | 345° |
| 2026-04-20 23:40 | 48.10023 | 16.58643 | 621 ft | 85 kts | 345° |
| 2026-04-20 23:40 | 48.10426 | 16.58477 | 616 ft | 42 kts | 345° |
| 2026-04-20 23:41 | 48.10656 | 16.58349 | 616 ft | 34 kts | 331° |
| 2026-04-20 23:41 | 48.10780 | 16.58203 | 622 ft | 0 kts | 317° |
| 2026-04-20 23:41 | 48.10789 | 16.58190 | 611 ft | 3 kts | 317° |
| 2026-04-20 23:41 | 48.10817 | 16.58152 | 617 ft | 8 kts | 317° |
| 2026-04-20 23:42 | 48.10868 | 16.58073 | 616 ft | 12 kts | 315° |
| 2026-04-20 23:42 | 48.10941 | 16.57964 | 617 ft | 17 kts | 314° |
| 2026-04-20 23:42 | 48.11029 | 16.57826 | 611 ft | 20 kts | 304° |
| 2026-04-20 23:42 | 48.11095 | 16.57622 | 616 ft | 24 kts | 297° |
| 2026-04-20 23:43 | 48.11173 | 16.57384 | 623 ft | 27 kts | 295° |
| 2026-04-20 23:43 | 48.11265 | 16.57111 | 616 ft | 31 kts | 294° |
| 2026-04-20 23:43 | 48.11362 | 16.56795 | 621 ft | 35 kts | 297° |
| 2026-04-20 23:43 | 48.11464 | 16.56495 | 616 ft | 31 kts | 295° |
| 2026-04-20 23:44 | 48.11543 | 16.56243 | 611 ft | 19 kts | 293° |
| 2026-04-20 23:44 | 48.11610 | 16.56047 | 617 ft | 19 kts | 298° |
| 2026-04-20 23:44 | 48.11664 | 16.55969 | 613 ft | 12 kts | 16° |
| 2026-04-20 23:44 | 48.11731 | 16.55942 | 613 ft | 12 kts | 290° |
| 2026-04-20 23:45 | 48.11788 | 16.55831 | 610 ft | 14 kts | 349° |
| 2026-04-20 23:45 | 48.11882 | 16.55896 | 619 ft | 5 kts | 28° |
| 2026-04-20 23:45 | 48.11907 | 16.55881 | 614 ft | 6 kts | 265° |
| 2026-04-20 23:45 | 48.11923 | 16.55844 | 614 ft | 2 kts | 307° |
| 2026-04-20 23:46 | 48.11932 | 16.55816 | 610 ft | 1 kts | 295° |
| 2026-04-20 23:46 | 48.11935 | 16.55807 | 623 ft | 0 kts | 297° |
| 2026-04-20 23:46 | 48.11937 | 16.55801 | 622 ft | 0 kts | 296° |
| 2026-04-20 23:46 | 48.11938 | 16.55798 | 621 ft | 0 kts | 296° |